KFKL/FKL METAR and TAF weather

Enter ICAO airport designator
Station Type Date Time Source
KFKL METAR 2019/12/14 17:20 UTC NOAA

KFKL 141720Z AUTO 31006KT 1 1/2SM -SN BR OVC004 00/00 A2938 RMK AO2 P0001 FZRANO


Station Type Date Time Source
KFKL Decoded METAR 2019/12/14 17:20 UTC NOAA

Franklin, Venango Regional Airport, PA, United States (KFKL) 41-23N 079-52W
Dec 14, 2019 - 12:20 PM EST / 2019.12.14 1720 UTC
Wind: from the NW (310 degrees) at 7 MPH (6 KT):0
Visibility: 1 1/2 mile(s):0
Sky conditions: overcast
Weather: light snow; mist
Precipitation last hour: 0.01 inches
Temperature: 32 F (0 C)
Windchill: 24 F (-4 C):1
Dew Point: 32 F (0 C)
Relative Humidity: 100%
Pressure (altimeter): 29.38 in. Hg (994 hPa)
ob: KFKL 141720Z AUTO 31006KT 1 1/2SM -SN BR OVC004 00/00 A2938 RMK AO2 P0001 FZRANO
cycle: 17

Station Type Date Time Source
KFKL TAF 2019/12/14 12:24 UTC NOAA

TAF KFKL 141121Z 1412/1512 02005KT 1/2SM -RA FG OVC002
FM141500 34005KT 1SM -RA BR OVC004
FM141700 32010G20KT 2SM -SNRA OVC005
FM142300 29010G20KT 2SM -SHSN OVC005
FM150500 28010G20KT P6SM -SHSN OVC007
FM150900 26010G20KT P6SM OVC010

Example: see airport list